CNS6 weather

Straffordville Airport
Straffordville, Ontario, Canada

Public forecast

Using degrees Celsius for public forecast. Weather courtesy of forecast.io.

Closest aviation weather report (METAR) to Straffordville Airport

Closest report is London Airport, 23.2 nm (43.0 km) NW. Retrieved 2020/03/31 23:00 UTC (39 seconds ago):

CYXU 312300Z 07012KT 12SM OVC009 05/03 A2995 RMK SC8 SLP151

Closest aviation forecast (TAF) to Straffordville Airport

Closest forecast is London Airport, 23.2 nm (43.0 km) NW. Retrieved 2020/03/31 18:42 UTC (4 hours ago):

TAF CYXU 311738Z 3118/0118 11007KT P6SM -SHRA BKN015 OVC040 TEMPO 3118/3123 P6SM NSW SCT015 OVC040 FM312300 07008KT P6SM BKN015 BKN030 FM010300 07008KT P6SM BKN007 OVC030 FM010900 05008KT P6SM BKN030 FM011500 03008KT P6SM FEW050 RMK NXT FCST BY 010000Z